x

Orange Beach - 44 Nm Se Of Mobile, Al (42012) Wave Buoy

1:50pm - Wed 23rd Jul 2014 All times are CDT. -5 hours from GMT.

  • Sig Wave height 1.0ft
  • Swell Direction
  • Peak Period 8s
  • Average Period 3s
  • Wind
    7mph, 11mph gusts
  • Sea Temp 83°f
  • Air Temp 76°f
  • Sea Pressure 1018.5mb
  • Orange Beach - 44 Nm Se Of Mobile, Al
  • Orange Beach - 44 Nm Se Of Mobile, Al

More Historic Weather Station data

Upgrade to MSW Pro to gain access to the past 30 days of data for over 8000 Wavebouys and Weather Stations around the globe.

Join Pro

Comparision Forecast

View Surf forecast
   
Wed 07/23 1:50pm 1ft 8s 3s 7 11 mph 1018.5mb 83f 76f
12:50pm 1ft 5s 4s 16 20 mph 1019.1mb 83f 77f
11:50am 1ft 4s 4s 13
mph
1018.3mb 83f 79f
10:50am 1ft 4s 4s 7 9 mph 1018.1mb 83f 82f
9:50am 1ft 4s 4s 4 7 mph 1018.2mb 83f 82f
8:50am 1ft 4s 4s 4 7 mph 1018.1mb 83f 82f
7:50am 1ft 4s 4s 7
mph
1018mb 82f 82f
6:50am 1ft 4s 4s 7
mph
1017.5mb 82f 82f
5:50am 1ft 4s 4s 4
mph
1017.1mb 82f 81f
4:50am 1.3ft 4s 4s 4
mph
1016.4mb 82f 81f
3:50am 1ft 4s 4s 2 4 mph 1016.5mb 83f 82f
2:50am 1ft 4s 4s  -  2 mph 1016.4mb 83f 82f
1:50am 0.7ft  -  4s  -  2 mph 1016.8mb 83f 82f
12:50am 0.7ft  -  4s 4
mph
1017mb 83f 82f
Tue 07/22 11:50pm 1ft 9s 4s 4 7 mph 1017.2mb 83f 82f
10:50pm 1ft 3s 4s  -  2 mph 1017.6mb 83f 82f
9:50pm 1ft 4s 4s 2 4 mph 1017.8mb 84f 82f
8:50pm 1ft 4s 4s 2
mph
1017.3mb 84f 83f
7:50pm 1ft 4s 3s 2 4 mph 1016.9mb 84f 83f
6:50pm 1ft 4s 3s 7 9 mph 1016.6mb 84f 83f
5:50pm 1ft 4s 3s 7 9 mph 1015.8mb 84f 83f
4:50pm 1ft 3s 3s 7
mph
1016.2mb 84f 83f
3:50pm 1ft 4s 3s 7 9 mph 1016.4mb 84f 83f
2:50pm 1ft 4s 3s 11 13 mph 1016.6mb 84f 83f
1:50pm 1.3ft 4s 3s 9 11 mph 1016.7mb 83f 82f
12:50pm 1.3ft 4s 3s 9
mph
1017.6mb 83f 82f
11:50am 1.3ft 4s 4s 11
mph
1017.5mb 83f 82f
10:50am 1.3ft 4s 3s 9
mph
1017.3mb 83f 82f
9:50am 1.3ft 4s 4s 4 7 mph 1017.3mb 82f 82f
8:50am 1.3ft 4s 4s 4 7 mph 1017.2mb 82f 82f
7:50am 1.3ft 5s 4s 4 7 mph 1017.1mb 82f 82f
6:50am 1.3ft 5s 4s 7 9 mph 1016.4mb 82f 82f
5:50am 1.6ft 5s 4s 9 11 mph 1015.9mb 82f 82f
4:50am 1.6ft 5s 4s 7 9 mph 1015.4mb 82f 82f
2:50am 2ft 5s 4s 9 11 mph 1015.1mb 82f 82f
1:50am 2ft 5s 4s 7 9 mph 1015.4mb 83f 82f
12:50am 2ft 5s 4s 9 11 mph 1015.9mb 83f 82f
Mon 07/21 11:50pm 2ft 5s 4s 9 11 mph 1016.1mb 83f 82f
10:50pm 2.5ft 5s 4s 7 9 mph 1016.3mb 83f 82f
8:50pm 2.5ft 5s 4s 13 16 mph 1015.1mb 83f 82f
7:50pm 2ft 5s 4s 16 18 mph 1014.9mb 83f 82f
6:50pm 1.6ft 5s 4s 11 13 mph 1015.4mb 84f 82f
4:50pm 2ft 5s 4s 9 11 mph 1015.6mb 84f 82f
3:50pm 2ft 5s 4s 7 9 mph 1015.6mb 84f 82f
2:50pm 2ft 5s 4s 9 11 mph 1016.2mb 83f 82f
1:50pm 2ft 5s 4s 9 11 mph 1016.9mb 83f 81f
12:50pm 2ft 5s 4s 7
mph
1017.4mb 83f 80f
11:50am 2.5ft 5s 4s  -  2 mph 1017.9mb 82f 81f
10:50am 2.5ft 5s 4s 2 4 mph 1017.3mb 82f 80f
9:50am 2.5ft 5s 4s 2 4 mph 1017.3mb 81f 79f
8:50am 2.5ft 5s 4s 7 9 mph 1017.4mb 81f 79f
7:50am 2.5ft 5s 4s 11
mph
1016.3mb 81f 79f
6:50am 3ft 5s 4s 9 11 mph 1016mb 81f 79f
5:50am 2.5ft 4s 4s 13 16 mph 1015.7mb 81f 80f
4:50am 2.5ft 5s 4s 16 18 mph 1014.7mb 82f 81f
3:50am 2.5ft 4s 4s 16 20 mph 1014.4mb 82f 81f
2:50am 2.5ft 6s 4s 13 16 mph 1014.6mb 82f 81f
1:50am 2ft 6s 4s 13 16 mph 1014.9mb 82f 81f
12:50am 2ft 6s 4s 9 11 mph 1015.2mb 82f 82f
Sun 07/20 11:50pm 2ft 6s 4s 9 11 mph 1015.9mb 82f 82f
10:50pm 2.5ft 5s 4s 9 11 mph 1015.6mb 82f 82f
9:50pm 2.5ft 7s 4s 7 9 mph 1015.3mb 82f 81f
8:50pm 2.5ft 6s 4s 9 11 mph 1014.9mb 82f 80f
7:50pm 3ft 6s 4s 11 13 mph 1015mb 82f 80f
6:50pm 4ft 5s 5s 13 16 mph 1015.5mb 82f 80f
5:50pm 4.5ft 5s 5s 13 16 mph 1015.9mb 82f 80f
4:50pm 5ft 6s 5s 22 25 mph 1016.3mb 82f 81f
3:50pm 5ft 6s 5s 27 31 mph 1015.8mb 82f 80f
2:50pm 5ft 6s 5s 27 31 mph 1016.6mb 82f 79f
1:50pm 4.5ft 6s 5s 25 29 mph 1017mb 82f 79f
12:50pm 3.5ft 6s 5s 22 27 mph 1017.5mb 83f 80f
11:50am 3.5ft 6s 5s 7 9 mph 1017.8mb 83f 81f
10:50am 3.5ft 6s 5s 2 4 mph 1017.5mb 82f 81f
9:50am 3ft 6s 5s 7 9 mph 1017.5mb 82f 81f
8:50am 2.5ft 6s 4s 9 11 mph 1017.3mb 82f 81f
7:50am 3ft 6s 4s 13
mph
1016.7mb 82f 81f
6:50am 2.5ft 6s 4s 11 13 mph 1015.7mb 82f 82f
5:50am 2.5ft 7s 4s 7 9 mph 1015.1mb 82f 82f
4:50am 2.5ft 6s 4s 9 11 mph 1014.8mb 82f 82f
3:50am 2.5ft 6s 4s 11 13 mph 1014.5mb 82f 82f
2:50am 2.5ft 7s 4s 11 13 mph 1014.6mb 82f 83f
1:50am 2.5ft 7s 4s 11 16 mph 1015.2mb 82f 82f
12:50am 2.5ft 6s 4s 13 16 mph 1015.7mb 82f 82f
Sat 07/19 11:50pm 2.5ft 7s 4s 13 16 mph 1016mb 82f 82f
10:50pm 2.5ft 6s 5s 13 16 mph 1015.9mb 82f 82f
9:50pm 2.5ft 7s 5s 13
mph
1016.2mb 82f 82f
8:50pm 3ft 6s 5s 9 11 mph 1016.2mb 82f 82f